Time;durP1;ratioP1;P1;durP2;ratioP2;P2;SDS_P1;SDS_P2;PMS_P1;PMS_P2;Temp;Humidity;BMP_temperature;BMP_pressure;BME280_temperature;BME280_humidity;BME280_pressure;Samples;Min_cycle;Max_cycle;Signal;HPM_P1;HPM_P2
2022/11/07 00:02:21;;;;;;;;;7.75;3.00;;;;;;;;5003840;28;45532;-76
2022/11/07 00:04:46;;;;;;;;;3.75;2.25;;;;;;;;5009823;28;47074;-75
2022/11/07 00:07:11;;;;;;;;;2.00;2.00;;;;;;;;5012658;28;45282;-76
2022/11/07 00:09:37;;;;;;;;;3.50;3.50;;;;;;;;5018282;28;45431;-73
2022/11/07 00:12:02;;;;;;;;;4.50;3.25;;;;;;;;5014152;28;45395;-75
2022/11/07 00:14:27;;;;;;;;;4.00;4.00;;;;;;;;5007409;28;46365;-74
2022/11/07 00:16:52;;;;;;;;;4.75;3.00;;;;;;;;5017770;28;45470;-76
2022/11/07 00:19:19;;;;;;;;;3.25;2.00;;;;;;;;5016581;28;45164;-75
2022/11/07 00:21:44;;;;;;;;;3.00;2.00;;;;;;;;5003614;28;45528;-75
2022/11/07 00:24:10;;;;;;;;;3.50;2.00;;;;;;;;5000908;28;45566;-75
2022/11/07 00:26:36;;;;;;;;;4.00;2.75;;;;;;;;5017880;28;45231;-76
2022/11/07 00:29:02;;;;;;;;;4.00;3.00;;;;;;;;5013250;28;45407;-74
2022/11/07 00:31:27;;;;;;;;;4.25;2.50;;;;;;;;5010335;28;45290;-73
2022/11/07 00:33:52;;;;;;;;;4.00;1.00;;;;;;;;5000198;28;45400;-75
2022/11/07 00:36:19;;;;;;;;;4.00;2.75;;;;;;;;5017540;28;45294;-76
2022/11/07 00:38:44;;;;;;;;;5.00;2.00;;;;;;;;5007845;28;45497;-73
2022/11/07 00:41:10;;;;;;;;;7.00;3.50;;;;;;;;5017849;28;45321;-74
2022/11/07 00:43:35;;;;;;;;;3.50;1.50;;;;;;;;5017169;28;45464;-75
2022/11/07 00:46:01;;;;;;;;;2.75;2.75;;;;;;;;5017574;28;45499;-75
2022/11/07 00:48:26;;;;;;;;;4.75;2.00;;;;;;;;5011975;28;45254;-75
2022/11/07 00:50:52;;;;;;;;;2.00;1.00;;;;;;;;4998100;28;45185;-73
2022/11/07 00:53:17;;;;;;;;;5.00;3.00;;;;;;;;4997590;28;45321;-77
2022/11/07 00:55:42;;;;;;;;;4.25;3.00;;;;;;;;5003990;28;45418;-75
2022/11/07 00:58:08;;;;;;;;;6.00;3.00;;;;;;;;5014580;28;45402;-75
2022/11/07 01:00:33;;;;;;;;;5.00;3.75;;;;;;;;5017383;28;45364;-74
2022/11/07 01:05:42;;;;;;;;;4.25;3.75;;;;;;;;4997866;28;45346;-74
2022/11/07 01:08:08;;;;;;;;;7.25;3.75;;;;;;;;5001780;28;45482;-75
2022/11/07 01:10:33;;;;;;;;;6.50;3.00;;;;;;;;5004261;28;45357;-76
2022/11/07 01:12:58;;;;;;;;;2.00;2.00;;;;;;;;5015022;28;46246;-75
2022/11/07 01:15:23;;;;;;;;;3.75;3.75;;;;;;;;5020530;28;45514;-75
2022/11/07 01:17:49;;;;;;;;;5.00;3.00;;;;;;;;5019208;28;45418;-74
2022/11/07 01:20:14;;;;;;;;;3.00;3.00;;;;;;;;5021483;28;45349;-77
2022/11/07 01:22:39;;;;;;;;;4.00;3.00;;;;;;;;5009667;28;47216;-74
2022/11/07 01:25:04;;;;;;;;;4.25;2.25;;;;;;;;5000776;28;45163;-76
2022/11/07 01:27:30;;;;;;;;;3.50;2.75;;;;;;;;5001115;28;45250;-75
2022/11/07 01:29:55;;;;;;;;;6.25;3.00;;;;;;;;5004465;28;45365;-76
2022/11/07 01:32:20;;;;;;;;;6.00;3.00;;;;;;;;5000746;28;46096;-75
2022/11/07 01:34:46;;;;;;;;;3.00;2.00;;;;;;;;5015908;28;45374;-75
2022/11/07 01:37:11;;;;;;;;;5.50;3.50;;;;;;;;5018399;28;45227;-75
2022/11/07 01:39:36;;;;;;;;;6.00;2.25;;;;;;;;5020340;28;45313;-74
2022/11/07 01:42:02;;;;;;;;;4.75;2.00;;;;;;;;5020485;28;46520;-76
2022/11/07 01:44:27;;;;;;;;;5.25;2.75;;;;;;;;5005025;28;45823;-75
2022/11/07 01:46:56;;;;;;;;;6.50;3.25;;;;;;;;5001468;28;45819;-76
2022/11/07 01:49:33;;;;;;;;;3.50;1.75;;;;;;;;5000713;28;45356;-74
2022/11/07 01:52:02;;;;;;;;;4.25;2.75;;;;;;;;5000997;28;47427;-75
2022/11/07 01:54:34;;;;;;;;;1.50;1.50;;;;;;;;5002771;28;45737;-74
2022/11/07 01:57:02;;;;;;;;;7.50;4.75;;;;;;;;5016506;28;45558;-76
2022/11/07 01:59:30;;;;;;;;;4.50;3.75;;;;;;;;5014137;28;45389;-74
2022/11/07 02:01:56;;;;;;;;;1.50;1.50;;;;;;;;5001781;28;47569;-75
2022/11/07 02:04:24;;;;;;;;;6.50;2.00;;;;;;;;5012924;28;45469;-76
2022/11/07 02:07:08;;;;;;;;;5.50;1.00;;;;;;;;5002725;28;45198;-76
2022/11/07 02:09:33;;;;;;;;;3.00;2.00;;;;;;;;5000339;28;45306;-77
2022/11/07 02:11:59;;;;;;;;;2.75;2.75;;;;;;;;5014031;28;45305;-75
2022/11/07 02:14:25;;;;;;;;;5.50;3.00;;;;;;;;5019497;28;45273;-75
2022/11/07 02:16:50;;;;;;;;;5.50;4.00;;;;;;;;5012911;28;45340;-76
2022/11/07 02:19:21;;;;;;;;;7.00;2.25;;;;;;;;5004404;28;45495;-74
2022/11/07 02:21:52;;;;;;;;;4.00;2.00;;;;;;;;5018740;28;46648;-75
2022/11/07 02:24:44;;;;;;;;;4.75;2.75;;;;;;;;4999513;28;45485;-75
2022/11/07 02:27:11;;;;;;;;;7.75;2.75;;;;;;;;5000034;28;45446;-76
2022/11/07 02:29:38;;;;;;;;;8.25;8.00;;;;;;;;4999673;28;45441;-75
2022/11/07 02:32:05;;;;;;;;;5.50;3.00;;;;;;;;5016953;28;45541;-77
2022/11/07 02:34:30;;;;;;;;;5.00;2.75;;;;;;;;5019915;28;45847;-74
2022/11/07 02:36:55;;;;;;;;;2.25;2.25;;;;;;;;5011566;28;45458;-77
2022/11/07 02:39:21;;;;;;;;;5.00;2.00;;;;;;;;5001992;28;45487;-75
2022/11/07 02:41:46;;;;;;;;;4.00;1.00;;;;;;;;5003780;28;46456;-77
2022/11/07 02:44:12;;;;;;;;;4.50;2.00;;;;;;;;5017471;28;45341;-76
2022/11/07 02:46:38;;;;;;;;;1.25;1.25;;;;;;;;5015905;28;45383;-75
2022/11/07 02:49:03;;;;;;;;;5.00;2.00;;;;;;;;5000084;28;45221;-75
2022/11/07 02:51:28;;;;;;;;;2.00;2.00;;;;;;;;4999712;28;46108;-75
2022/11/07 02:53:54;;;;;;;;;4.50;2.00;;;;;;;;5002361;28;45320;-76
2022/11/07 02:56:19;;;;;;;;;2.00;1.00;;;;;;;;4999895;28;45874;-77
2022/11/07 02:58:45;;;;;;;;;6.50;2.00;;;;;;;;5013800;28;45406;-76
2022/11/07 03:01:11;;;;;;;;;7.25;2.00;;;;;;;;5004173;28;46439;-78
2022/11/07 03:03:38;;;;;;;;;0.25;0.25;;;;;;;;4999540;28;45420;-77
2022/11/07 03:06:04;;;;;;;;;1.00;1.00;;;;;;;;4999881;28;45975;-75
2022/11/07 03:08:29;;;;;;;;;3.75;1.00;;;;;;;;5001339;28;45416;-75
2022/11/07 03:10:54;;;;;;;;;4.50;1.50;;;;;;;;5007405;28;45866;-75
2022/11/07 03:13:19;;;;;;;;;5.00;1.75;;;;;;;;5018887;28;45479;-75
2022/11/07 03:15:45;;;;;;;;;4.25;1.25;;;;;;;;5006989;28;45307;-75
2022/11/07 03:18:10;;;;;;;;;5.50;2.50;;;;;;;;5002713;28;45538;-76
2022/11/07 03:20:35;;;;;;;;;1.00;1.00;;;;;;;;5004443;28;45704;-76
2022/11/07 03:23:00;;;;;;;;;7.00;3.00;;;;;;;;5011720;28;45455;-76
2022/11/07 03:25:25;;;;;;;;;3.75;2.00;;;;;;;;5001292;28;45446;-76
2022/11/07 03:27:51;;;;;;;;;1.00;0.00;;;;;;;;5018832;28;45461;-78
2022/11/07 03:30:16;;;;;;;;;6.25;2.00;;;;;;;;5024341;28;45510;-77
2022/11/07 03:32:41;;;;;;;;;2.50;0.50;;;;;;;;5038527;28;45327;-75
2022/11/07 03:35:07;;;;;;;;;6.75;2.00;;;;;;;;5038536;28;45297;-77
2022/11/07 03:37:32;;;;;;;;;4.75;1.00;;;;;;;;5037942;28;45252;-77
2022/11/07 03:39:57;;;;;;;;;2.50;2.00;;;;;;;;5035269;28;46259;-78
2022/11/07 03:42:22;;;;;;;;;4.00;1.00;;;;;;;;5038554;28;45375;-77
2022/11/07 03:44:48;;;;;;;;;3.00;0.50;;;;;;;;4998598;28;45250;-76
2022/11/07 03:47:13;;;;;;;;;0.25;0.25;;;;;;;;4998953;28;45436;-75
2022/11/07 03:49:38;;;;;;;;;4.75;2.00;;;;;;;;5007072;28;45439;-76
2022/11/07 03:52:03;;;;;;;;;3.00;1.75;;;;;;;;5018634;28;45407;-78
2022/11/07 03:54:29;;;;;;;;;2.00;2.00;;;;;;;;5018629;28;45344;-75
2022/11/07 03:56:54;;;;;;;;;2.75;1.00;;;;;;;;5018678;28;45354;-76
2022/11/07 03:59:19;;;;;;;;;2.00;2.00;;;;;;;;5027047;28;46367;-76
2022/11/07 04:01:44;;;;;;;;;4.00;2.00;;;;;;;;5006248;28;45516;-75
2022/11/07 04:04:10;;;;;;;;;4.00;2.50;;;;;;;;5033115;28;45286;-76
2022/11/07 04:06:35;;;;;;;;;3.00;1.75;;;;;;;;5038365;28;45853;-77
2022/11/07 04:09:00;;;;;;;;;2.00;2.00;;;;;;;;5037638;28;46107;-76
2022/11/07 04:19:37;;;;;;;;;2.75;1.25;;;;;;;;4997986;28;45245;-75
2022/11/07 04:22:02;;;;;;;;;5.00;2.00;;;;;;;;4998085;28;45368;-77
2022/11/07 04:24:27;;;;;;;;;3.00;2.00;;;;;;;;4998331;28;45357;-78
2022/11/07 04:29:36;;;;;;;;;5.50;2.00;;;;;;;;5001695;28;45521;-75
2022/11/07 04:32:01;;;;;;;;;5.50;2.00;;;;;;;;5037677;28;45281;-78
2022/11/07 04:34:27;;;;;;;;;3.25;1.75;;;;;;;;5036868;28;45473;-75
2022/11/07 04:36:52;;;;;;;;;2.75;1.00;;;;;;;;5018832;28;45495;-76
2022/11/07 04:39:17;;;;;;;;;6.25;1.00;;;;;;;;5037420;28;47152;-76
2022/11/07 04:41:42;;;;;;;;;1.25;1.00;;;;;;;;5037442;28;45361;-76
2022/11/07 04:44:07;;;;;;;;;6.00;2.00;;;;;;;;5037459;28;45514;-76
2022/11/07 04:46:33;;;;;;;;;2.00;2.00;;;;;;;;5037552;28;45319;-76
2022/11/07 04:48:58;;;;;;;;;5.25;2.00;;;;;;;;5036042;28;45553;-77
2022/11/07 04:51:23;;;;;;;;;2.50;1.75;;;;;;;;5037454;28;45214;-76
2022/11/07 04:53:48;;;;;;;;;2.25;2.00;;;;;;;;5003231;28;45204;-77
2022/11/07 04:56:13;;;;;;;;;3.00;2.00;;;;;;;;5031911;28;45229;-76
2022/11/07 04:58:39;;;;;;;;;5.75;1.50;;;;;;;;5037076;28;46503;-78
2022/11/07 05:01:04;;;;;;;;;2.00;2.00;;;;;;;;5037439;28;45351;-76
2022/11/07 05:03:29;;;;;;;;;4.25;1.25;;;;;;;;5037096;28;45438;-76
2022/11/07 05:05:54;;;;;;;;;3.75;2.00;;;;;;;;5037482;28;45498;-77
2022/11/07 05:08:19;;;;;;;;;8.00;2.00;;;;;;;;5016542;28;46701;-76
2022/11/07 05:10:45;;;;;;;;;3.50;1.25;;;;;;;;5012594;28;45302;-77
2022/11/07 05:13:10;;;;;;;;;4.00;3.00;;;;;;;;5017439;28;45324;-76
2022/11/07 05:15:35;;;;;;;;;7.25;3.00;;;;;;;;5017526;28;45274;-75
2022/11/07 05:18:00;;;;;;;;;3.25;2.00;;;;;;;;5016525;28;45781;-76
2022/11/07 05:20:30;;;;;;;;;5.00;2.00;;;;;;;;5015807;28;45301;-77
2022/11/07 05:23:11;;;;;;;;;3.75;2.75;;;;;;;;5027706;28;45324;-79
2022/11/07 05:25:37;;;;;;;;;3.75;3.50;;;;;;;;5029508;28;45460;-77
2022/11/07 05:28:02;;;;;;;;;6.75;3.00;;;;;;;;4997137;28;46094;-74
2022/11/07 05:30:27;;;;;;;;;2.00;2.00;;;;;;;;4997120;28;45381;-77
2022/11/07 05:32:52;;;;;;;;;4.50;2.50;;;;;;;;5002019;28;45320;-77
2022/11/07 05:35:18;;;;;;;;;2.25;2.00;;;;;;;;5030079;28;45351;-77
2022/11/07 05:37:43;;;;;;;;;3.00;2.00;;;;;;;;5036503;28;45464;-74
2022/11/07 05:40:08;;;;;;;;;2.50;2.00;;;;;;;;5032930;28;45418;-76
2022/11/07 05:42:33;;;;;;;;;2.00;1.50;;;;;;;;5036948;28;45416;-76
2022/11/07 05:44:59;;;;;;;;;3.00;3.00;;;;;;;;5037114;28;45302;-76
2022/11/07 05:47:24;;;;;;;;;4.75;3.00;;;;;;;;5027237;28;47201;-75
2022/11/07 05:49:49;;;;;;;;;4.00;2.00;;;;;;;;5036673;28;45303;-76
2022/11/07 05:52:14;;;;;;;;;3.00;3.00;;;;;;;;5037033;28;45458;-77
2022/11/07 05:54:39;;;;;;;;;4.00;2.25;;;;;;;;5037000;28;45291;-76
2022/11/07 05:57:05;;;;;;;;;4.50;2.00;;;;;;;;5024237;28;45410;-76
2022/11/07 05:59:30;;;;;;;;;4.00;3.00;;;;;;;;5031535;28;45426;-76
2022/11/07 06:01:55;;;;;;;;;3.00;0.75;;;;;;;;5040007;28;45484;-76
2022/11/07 06:04:20;;;;;;;;;3.75;3.50;;;;;;;;5040298;28;45367;-78
2022/11/07 06:06:46;;;;;;;;;1.00;1.00;;;;;;;;5029938;28;46021;-76
2022/11/07 06:09:11;;;;;;;;;2.75;1.25;;;;;;;;5020055;28;45420;-74
2022/11/07 06:11:36;;;;;;;;;4.75;2.00;;;;;;;;5020112;28;45329;-74
2022/11/07 06:14:02;;;;;;;;;4.00;2.00;;;;;;;;5019263;28;45337;-76
2022/11/07 06:16:27;;;;;;;;;6.75;1.25;;;;;;;;5019996;28;46805;-76
2022/11/07 06:18:52;;;;;;;;;5.25;2.75;;;;;;;;5031852;28;45380;-74
2022/11/07 06:21:17;;;;;;;;;6.00;4.00;;;;;;;;5040000;28;45208;-77
2022/11/07 06:23:42;;;;;;;;;6.25;3.50;;;;;;;;5040029;28;45638;-78
2022/11/07 06:26:08;;;;;;;;;2.25;2.25;;;;;;;;5039262;28;46477;-76
2022/11/07 06:28:33;;;;;;;;;2.00;2.00;;;;;;;;5035031;28;45372;-74
2022/11/07 06:30:59;;;;;;;;;6.00;2.00;;;;;;;;5009170;28;45398;-75
2022/11/07 06:33:24;;;;;;;;;4.75;4.00;;;;;;;;5019986;28;45214;-74
2022/11/07 06:35:50;;;;;;;;;2.50;2.00;;;;;;;;5019505;28;46173;-73
2022/11/07 06:38:15;;;;;;;;;2.75;2.00;;;;;;;;5019482;28;45503;-75
2022/11/07 06:40:41;;;;;;;;;5.25;2.25;;;;;;;;5019499;28;45408;-75
2022/11/07 06:43:11;;;;;;;;;6.25;2.50;;;;;;;;5019710;28;45431;-77
2022/11/07 06:45:37;;;;;;;;;5.50;3.25;;;;;;;;5025488;28;46138;-75
2022/11/07 06:48:02;;;;;;;;;5.00;2.00;;;;;;;;5020738;28;45379;-76
2022/11/07 06:50:27;;;;;;;;;4.00;2.00;;;;;;;;5039341;28;45400;-76
2022/11/07 06:52:53;;;;;;;;;7.00;4.00;;;;;;;;5039544;28;45182;-76
2022/11/07 06:55:20;;;;;;;;;8.50;7.00;;;;;;;;5039085;28;47144;-76
2022/11/07 06:57:46;;;;;;;;;4.25;3.00;;;;;;;;5039248;28;45315;-75
2022/11/07 07:00:11;;;;;;;;;9.25;3.00;;;;;;;;5039142;28;45482;-76
2022/11/07 07:02:36;;;;;;;;;9.50;6.75;;;;;;;;5020420;28;45266;-76
2022/11/07 07:05:02;;;;;;;;;12.00;9.00;;;;;;;;5004448;28;45524;-71
2022/11/07 07:07:28;;;;;;;;;4.50;4.00;;;;;;;;4999174;28;45890;-75
2022/11/07 07:09:53;;;;;;;;;2.75;2.75;;;;;;;;4999421;28;45364;-73
2022/11/07 07:12:18;;;;;;;;;4.75;4.00;;;;;;;;5017572;28;45461;-76
2022/11/07 07:14:43;;;;;;;;;5.75;3.00;;;;;;;;5025573;28;47342;-75
2022/11/07 07:17:10;;;;;;;;;8.00;4.25;;;;;;;;5038334;28;45289;-73
2022/11/07 07:19:36;;;;;;;;;5.75;3.50;;;;;;;;5037459;28;45440;-74
2022/11/07 07:22:01;;;;;;;;;7.00;3.00;;;;;;;;5019270;28;45396;-73
2022/11/07 07:24:26;;;;;;;;;6.00;2.00;;;;;;;;5018493;28;47005;-75
2022/11/07 07:26:52;;;;;;;;;8.75;5.75;;;;;;;;5018541;28;45388;-75
2022/11/07 07:29:17;;;;;;;;;3.25;3.00;;;;;;;;5015086;28;45403;-75
2022/11/07 07:31:42;;;;;;;;;6.25;3.00;;;;;;;;5021678;28;45688;-75
2022/11/07 07:34:08;;;;;;;;;8.75;5.00;;;;;;;;5033575;28;46569;-75
2022/11/07 07:36:33;;;;;;;;;6.25;5.75;;;;;;;;5031814;28;45254;-76
2022/11/07 07:38:58;;;;;;;;;2.25;1.75;;;;;;;;5018917;28;45226;-75
2022/11/07 07:41:23;;;;;;;;;3.00;3.00;;;;;;;;5018509;28;45583;-76
2022/11/07 07:43:48;;;;;;;;;4.00;2.00;;;;;;;;5018204;28;45515;-77
2022/11/07 07:46:15;;;;;;;;;9.00;3.25;;;;;;;;5018568;28;45317;-78
2022/11/07 07:48:40;;;;;;;;;6.50;2.00;;;;;;;;5017639;28;45328;-78
2022/11/07 07:51:05;;;;;;;;;5.00;2.50;;;;;;;;5010593;28;45471;-77
2022/11/07 07:53:31;;;;;;;;;4.50;2.75;;;;;;;;5015138;28;46376;-75
2022/11/07 07:55:57;;;;;;;;;10.00;3.00;;;;;;;;5018028;28;45336;-76
2022/11/07 07:58:22;;;;;;;;;4.75;2.50;;;;;;;;5004469;28;45210;-75
2022/11/07 08:00:50;;;;;;;;;6.00;2.00;;;;;;;;5011037;28;45376;-76
2022/11/07 08:03:15;;;;;;;;;4.25;3.00;;;;;;;;5051792;28;46600;-75
2022/11/07 08:05:40;;;;;;;;;4.50;3.00;;;;;;;;5034270;28;45468;-74
2022/11/07 08:08:06;;;;;;;;;6.50;4.00;;;;;;;;5020812;28;45225;-71
2022/11/07 08:10:31;;;;;;;;;7.50;3.00;;;;;;;;4998715;28;45452;-69
2022/11/07 08:12:56;;;;;;;;;6.75;3.00;;;;;;;;4998050;28;46356;-69
2022/11/07 08:15:22;;;;;;;;;4.50;2.00;;;;;;;;5005060;28;45389;-69
2022/11/07 08:17:47;;;;;;;;;4.50;3.00;;;;;;;;5019896;28;45323;-73
2022/11/07 08:20:14;;;;;;;;;5.00;2.00;;;;;;;;5018039;28;45416;-73
2022/11/07 08:22:39;;;;;;;;;1.75;1.50;;;;;;;;5017311;28;45590;-73
2022/11/07 08:25:05;;;;;;;;;9.75;7.75;;;;;;;;5017748;28;45261;-72
2022/11/07 08:27:31;;;;;;;;;7.25;4.75;;;;;;;;5015700;28;45234;-74
2022/11/07 08:29:56;;;;;;;;;3.50;2.75;;;;;;;;4997683;28;46437;-73
2022/11/07 08:32:22;;;;;;;;;4.00;2.50;;;;;;;;4996789;28;46595;-72
2022/11/07 08:34:47;;;;;;;;;6.00;3.50;;;;;;;;4997929;28;45305;-75
2022/11/07 08:37:12;;;;;;;;;6.75;3.25;;;;;;;;4997571;28;45292;-74
2022/11/07 08:39:37;;;;;;;;;9.00;2.50;;;;;;;;5000392;28;45233;-76
2022/11/07 08:42:03;;;;;;;;;6.75;2.00;;;;;;;;5015578;28;46327;-72
2022/11/07 08:44:31;;;;;;;;;8.75;2.00;;;;;;;;5015398;28;45493;-73
2022/11/07 08:46:56;;;;;;;;;3.75;1.75;;;;;;;;5016058;28;45455;-74
2022/11/07 08:49:21;;;;;;;;;4.50;2.00;;;;;;;;5015937;28;45478;-74
2022/11/07 08:51:47;;;;;;;;;4.00;2.00;;;;;;;;5016037;28;46490;-75
2022/11/07 08:54:12;;;;;;;;;4.25;1.50;;;;;;;;5010761;28;45356;-79
2022/11/07 08:56:37;;;;;;;;;4.00;2.50;;;;;;;;5008422;28;45368;-73
2022/11/07 08:59:02;;;;;;;;;4.50;2.00;;;;;;;;4998900;28;45349;-72
2022/11/07 09:01:28;;;;;;;;;4.25;2.00;;;;;;;;5002674;28;46353;-72
2022/11/07 09:03:53;;;;;;;;;3.00;2.75;;;;;;;;4997444;28;45290;-75
2022/11/07 09:06:18;;;;;;;;;4.25;3.75;;;;;;;;4997275;28;45731;-72
2022/11/07 09:08:44;;;;;;;;;6.75;3.25;;;;;;;;4997481;28;45342;-74
2022/11/07 09:11:09;;;;;;;;;8.50;2.75;;;;;;;;4997267;28;46024;-71
2022/11/07 09:13:34;;;;;;;;;4.50;2.00;;;;;;;;4997195;28;45752;-76
2022/11/07 09:16:01;;;;;;;;;3.25;2.00;;;;;;;;4997504;28;45370;-76
2022/11/07 09:18:26;;;;;;;;;4.50;1.50;;;;;;;;4998726;28;45698;-73
2022/11/07 09:20:52;;;;;;;;;2.25;1.75;;;;;;;;5003840;28;45442;-70
2022/11/07 09:23:18;;;;;;;;;2.75;1.75;;;;;;;;5014618;28;45412;-71
2022/11/07 09:25:43;;;;;;;;;4.50;3.00;;;;;;;;5011336;28;45360;-73
2022/11/07 09:28:08;;;;;;;;;2.75;2.00;;;;;;;;4997590;28;45364;-72
2022/11/07 09:30:33;;;;;;;;;3.75;1.00;;;;;;;;4997153;28;46522;-72
2022/11/07 09:32:59;;;;;;;;;0.25;0.25;;;;;;;;4996760;28;45472;-71
2022/11/07 09:35:24;;;;;;;;;0.00;0.00;;;;;;;;4999698;28;45345;-72
2022/11/07 09:37:50;;;;;;;;;5.00;2.00;;;;;;;;5007609;28;45365;-72
2022/11/07 09:40:21;;;;;;;;;6.25;2.00;;;;;;;;4999994;28;46181;-74
2022/11/07 09:42:53;;;;;;;;;3.00;3.00;;;;;;;;5000955;28;45408;-80
2022/11/07 09:45:18;;;;;;;;;4.25;2.00;;;;;;;;5011871;28;45494;-75
2022/11/07 09:47:54;;;;;;;;;7.75;2.50;;;;;;;;5020807;28;45283;-77
2022/11/07 09:50:22;;;;;;;;;4.00;2.75;;;;;;;;5000219;28;47083;-72
2022/11/07 09:52:51;;;;;;;;;8.25;4.25;;;;;;;;5000350;28;45257;-74
2022/11/07 09:55:23;;;;;;;;;1.00;1.00;;;;;;;;5006813;28;45458;-71
2022/11/07 09:57:51;;;;;;;;;3.50;2.25;;;;;;;;5004500;28;45449;-69
2022/11/07 10:00:17;;;;;;;;;1.75;1.50;;;;;;;;5000494;28;45572;-70
2022/11/07 10:02:47;;;;;;;;;3.75;2.00;;;;;;;;5013251;28;45362;-72
2022/11/07 10:05:23;;;;;;;;;6.00;2.50;;;;;;;;5007677;28;45851;-71
2022/11/07 10:07:57;;;;;;;;;4.50;1.50;;;;;;;;4999981;28;45496;-73
2022/11/07 10:10:34;;;;;;;;;2.25;1.75;;;;;;;;5007570;28;47315;-67
2022/11/07 10:13:00;;;;;;;;;3.25;2.00;;;;;;;;5014468;28;45522;-70
2022/11/07 10:15:27;;;;;;;;;6.00;5.25;;;;;;;;5002980;28;45681;-70
2022/11/07 10:18:11;;;;;;;;;4.75;1.50;;;;;;;;5023522;28;45301;-70
2022/11/07 10:20:39;;;;;;;;;3.00;1.00;;;;;;;;5021976;28;46307;-70
2022/11/07 10:23:13;;;;;;;;;1.25;1.25;;;;;;;;5019283;28;45425;-70
2022/11/07 10:25:38;;;;;;;;;1.25;1.25;;;;;;;;5019378;28;45455;-71
2022/11/07 10:28:06;;;;;;;;;4.00;2.25;;;;;;;;5018894;28;45357;-71
2022/11/07 10:30:31;;;;;;;;;3.25;2.50;;;;;;;;5019221;28;45515;-71
2022/11/07 10:32:59;;;;;;;;;1.50;1.25;;;;;;;;5020533;28;45391;-72
2022/11/07 10:35:27;;;;;;;;;4.75;1.50;;;;;;;;5007648;28;45617;-69
2022/11/07 10:38:00;;;;;;;;;1.00;1.00;;;;;;;;5002502;28;45484;-67
2022/11/07 10:40:30;;;;;;;;;3.50;2.25;;;;;;;;5019378;28;46466;-70
2022/11/07 10:42:56;;;;;;;;;2.50;0.50;;;;;;;;5039501;28;45378;-69
2022/11/07 10:45:21;;;;;;;;;2.25;0.50;;;;;;;;5021761;28;45218;-70
2022/11/07 10:47:57;;;;;;;;;1.75;0.50;;;;;;;;5019600;28;45452;-74
2022/11/07 10:50:23;;;;;;;;;3.25;3.25;;;;;;;;5006817;28;46836;-70
2022/11/07 10:52:55;;;;;;;;;4.00;2.00;;;;;;;;4999473;28;45490;-70
2022/11/07 10:55:21;;;;;;;;;4.25;2.25;;;;;;;;5012425;28;45639;-72
2022/11/07 10:57:52;;;;;;;;;5.50;0.50;;;;;;;;5019260;28;45359;-71
2022/11/07 11:00:22;;;;;;;;;3.25;1.50;;;;;;;;5018801;28;45388;-71
2022/11/07 11:02:48;;;;;;;;;1.75;0.50;;;;;;;;5018844;28;45418;-72
2022/11/07 11:05:22;;;;;;;;;3.50;1.25;;;;;;;;5023932;28;45412;-72
2022/11/07 11:07:47;;;;;;;;;2.75;1.75;;;;;;;;5007905;28;45435;-72
2022/11/07 11:10:23;;;;;;;;;1.25;1.25;;;;;;;;5018315;28;46672;-73
2022/11/07 11:12:49;;;;;;;;;7.00;2.50;;;;;;;;4998845;28;45537;-74
2022/11/07 11:15:14;;;;;;;;;5.25;3.00;;;;;;;;5000551;28;45894;-73
2022/11/07 11:17:39;;;;;;;;;3.00;1.00;;;;;;;;5002818;28;45451;-76
2022/11/07 11:20:06;;;;;;;;;2.50;1.00;;;;;;;;5004100;28;46278;-76
2022/11/07 11:22:38;;;;;;;;;3.00;2.75;;;;;;;;5030389;28;45459;-76
2022/11/07 11:25:15;;;;;;;;;5.50;4.00;;;;;;;;5007233;28;45313;-74
2022/11/07 11:27:41;;;;;;;;;8.00;4.00;;;;;;;;5019086;28;45381;-72
2022/11/07 11:30:10;;;;;;;;;3.25;2.75;;;;;;;;5018352;28;46326;-74
2022/11/07 11:32:41;;;;;;;;;3.00;3.00;;;;;;;;5018253;28;45312;-73
2022/11/07 11:35:07;;;;;;;;;3.25;1.00;;;;;;;;5015223;28;45435;-74
2022/11/07 11:37:35;;;;;;;;;3.50;1.00;;;;;;;;4998800;28;45318;-73
2022/11/07 11:40:01;;;;;;;;;2.00;2.00;;;;;;;;5010826;28;45757;-75
2022/11/07 11:42:26;;;;;;;;;3.50;3.50;;;;;;;;5033088;28;45459;-75
2022/11/07 11:44:54;;;;;;;;;6.25;3.75;;;;;;;;5017555;28;45288;-76
2022/11/07 11:47:23;;;;;;;;;5.50;1.00;;;;;;;;5000213;28;45506;-75
2022/11/07 11:50:24;;;;;;;;;4.00;2.75;;;;;;;;5012201;28;46551;-76
2022/11/07 11:52:49;;;;;;;;;2.50;2.50;;;;;;;;4981800;28;45505;-76
2022/11/07 11:55:17;;;;;;;;;5.50;2.75;;;;;;;;4996497;28;45432;-76
2022/11/07 11:58:01;;;;;;;;;3.25;2.25;;;;;;;;4992175;28;45361;-72
2022/11/07 12:00:30;;;;;;;;;2.50;2.00;;;;;;;;4977556;28;45720;-75
2022/11/07 12:03:13;;;;;;;;;5.25;3.00;;;;;;;;4987687;28;45801;-75
2022/11/07 12:05:57;;;;;;;;;2.25;1.50;;;;;;;;4988446;28;45678;-76
2022/11/07 12:08:37;;;;;;;;;6.00;3.75;;;;;;;;4979058;28;45501;-74
2022/11/07 12:11:05;;;;;;;;;4.25;0.75;;;;;;;;4995798;28;45647;-71
2022/11/07 12:13:36;;;;;;;;;2.00;0.75;;;;;;;;4995763;28;45379;-77
2022/11/07 12:16:15;;;;;;;;;4.50;2.50;;;;;;;;4996303;28;45422;-74
2022/11/07 12:19:02;;;;;;;;;4.75;3.50;;;;;;;;4995934;28;45524;-75
2022/11/07 12:21:39;;;;;;;;;2.25;1.00;;;;;;;;4995231;28;47332;-77
2022/11/07 12:24:27;;;;;;;;;0.80;0.80;;;;;;;;4995418;28;45357;-79
2022/11/07 12:27:02;;;;;;;;;5.00;1.75;;;;;;;;4976501;28;45300;-79
2022/11/07 12:29:33;;;;;;;;;2.50;2.00;;;;;;;;4976542;28;45300;-81
2022/11/07 12:32:14;;;;;;;;;4.00;1.75;;;;;;;;4976090;28;47193;-83
2022/11/07 12:34:42;;;;;;;;;2.50;2.25;;;;;;;;4976222;28;45359;-84
2022/11/07 12:37:23;;;;;;;;;3.00;1.75;;;;;;;;4976333;28;45384;-78
2022/11/07 12:39:57;;;;;;;;;3.25;2.75;;;;;;;;4976814;28;45439;-82
2022/11/07 12:42:33;;;;;;;;;3.75;2.25;;;;;;;;4976011;28;47355;-74
2022/11/07 12:45:11;;;;;;;;;4.00;4.00;;;;;;;;4976372;28;45529;-81
2022/11/07 12:47:45;;;;;;;;;7.75;2.50;;;;;;;;4976302;28;45429;-81
2022/11/07 12:50:29;;;;;;;;;4.25;2.00;;;;;;;;4976316;28;45478;-83
2022/11/07 12:53:17;;;;;;;;;3.75;2.00;;;;;;;;4975775;28;45747;-79
2022/11/07 12:55:45;;;;;;;;;3.00;2.00;;;;;;;;4975762;28;45418;-73
2022/11/07 12:58:19;;;;;;;;;1.25;0.25;;;;;;;;4975908;28;45481;-76
2022/11/07 13:00:45;;;;;;;;;24.67;24.67;;;;;;;;4975877;28;45424;-75
2022/11/07 13:03:13;;;;;;;;;4.00;3.00;;;;;;;;4979999;28;47547;-75
2022/11/07 13:05:38;;;;;;;;;4.25;2.75;;;;;;;;4997803;28;45460;-80
2022/11/07 13:08:14;;;;;;;;;1.00;1.00;;;;;;;;4997405;28;45529;-79
2022/11/07 13:10:48;;;;;;;;;1.00;1.00;;;;;;;;4997863;28;45396;-80
2022/11/07 13:13:16;;;;;;;;;4.00;2.00;;;;;;;;4997296;28;46877;-75
2022/11/07 13:15:41;;;;;;;;;1.25;1.25;;;;;;;;4997319;28;45404;-75
2022/11/07 13:18:23;;;;;;;;;2.25;0.75;;;;;;;;4997201;28;45297;-74
2022/11/07 13:20:57;;;;;;;;;3.75;2.25;;;;;;;;4997829;28;45255;-76
2022/11/07 13:23:27;;;;;;;;;3.00;3.00;;;;;;;;4997301;28;45582;-74
2022/11/07 13:26:03;;;;;;;;;3.00;1.00;;;;;;;;4997351;28;45410;-76
2022/11/07 13:28:48;;;;;;;;;2.25;1.00;;;;;;;;4997175;28;45322;-76
2022/11/07 13:31:33;;;;;;;;;3.00;2.00;;;;;;;;4996769;28;45995;-76
2022/11/07 13:34:28;;;;;;;;;2.50;2.25;;;;;;;;4997019;28;46503;-79
2022/11/07 13:36:57;;;;;;;;;4.50;3.00;;;;;;;;4994576;28;45339;-77
2022/11/07 13:39:23;;;;;;;;;3.00;2.00;;;;;;;;4995170;28;45334;-77
2022/11/07 13:41:48;;;;;;;;;2.50;2.00;;;;;;;;4995221;28;45394;-76
2022/11/07 13:44:19;;;;;;;;;1.00;1.00;;;;;;;;4994563;28;46365;-74
2022/11/07 13:47:00;;;;;;;;;4.25;3.50;;;;;;;;4995005;28;45359;-76
2022/11/07 13:49:25;;;;;;;;;6.50;3.25;;;;;;;;4995085;28;45438;-74
2022/11/07 13:51:51;;;;;;;;;6.00;2.75;;;;;;;;4995053;28;45504;-75
2022/11/07 13:54:33;;;;;;;;;2.50;1.75;;;;;;;;4994708;28;45364;-74
2022/11/07 13:56:58;;;;;;;;;3.50;2.50;;;;;;;;4994711;28;45370;-75
2022/11/07 13:59:26;;;;;;;;;5.00;3.25;;;;;;;;4994786;28;45637;-75
2022/11/07 14:01:55;;;;;;;;;2.75;1.75;;;;;;;;4996904;28;45370;-74
2022/11/07 14:04:21;;;;;;;;;6.25;4.00;;;;;;;;5013887;28;45513;-75
2022/11/07 14:06:48;;;;;;;;;4.25;1.75;;;;;;;;5013138;28;45231;-74
2022/11/07 14:09:15;;;;;;;;;3.00;2.00;;;;;;;;5012771;28;45784;-71
2022/11/07 14:11:40;;;;;;;;;2.50;2.00;;;;;;;;5014418;28;45443;-72
2022/11/07 14:14:06;;;;;;;;;4.00;2.00;;;;;;;;5015485;28;47053;-77
2022/11/07 14:16:31;;;;;;;;;3.25;1.00;;;;;;;;5016498;28;45347;-72
2022/11/07 14:19:01;;;;;;;;;3.50;2.00;;;;;;;;5015788;28;45315;-69
2022/11/07 14:21:26;;;;;;;;;10.25;5.00;;;;;;;;5018861;28;45396;-71
2022/11/07 14:23:52;;;;;;;;;1.00;1.00;;;;;;;;5019327;28;45364;-72
2022/11/07 14:26:19;;;;;;;;;2.75;2.75;;;;;;;;5019637;28;45175;-74
2022/11/07 14:28:45;;;;;;;;;5.25;2.25;;;;;;;;5019523;28;45372;-70
2022/11/07 14:31:15;;;;;;;;;3.50;1.00;;;;;;;;5018904;28;45388;-75
2022/11/07 14:33:46;;;;;;;;;2.50;2.50;;;;;;;;5019162;28;46629;-76
2022/11/07 14:36:11;;;;;;;;;2.00;2.00;;;;;;;;5019596;28;45361;-78
2022/11/07 14:38:43;;;;;;;;;1.50;1.00;;;;;;;;5019481;28;45338;-72
2022/11/07 14:41:10;;;;;;;;;4.50;3.00;;;;;;;;5018958;28;45313;-70
2022/11/07 14:43:36;;;;;;;;;2.00;2.00;;;;;;;;5019290;28;47187;-71
2022/11/07 14:46:03;;;;;;;;;4.75;4.75;;;;;;;;5019006;28;45306;-74
2022/11/07 14:48:29;;;;;;;;;1.00;1.00;;;;;;;;5019376;28;45277;-76
2022/11/07 14:50:55;;;;;;;;;5.25;3.25;;;;;;;;5019428;28;45523;-76
2022/11/07 14:53:27;;;;;;;;;2.00;2.00;;;;;;;;5018879;28;46818;-73
2022/11/07 14:55:55;;;;;;;;;10.50;10.00;;;;;;;;5019185;28;45313;-66
2022/11/07 14:58:24;;;;;;;;;5.00;4.00;;;;;;;;5018980;28;45619;-69
2022/11/07 15:00:52;;;;;;;;;6.50;5.00;;;;;;;;5019220;28;45419;-71